createdAt,value
2023-05-13T00:00:11.174Z,6.93
2023-05-13T00:03:13.478Z,6.55
2023-05-13T00:06:15.988Z,6.82
2023-05-13T00:09:18.214Z,6.68
2023-05-13T00:12:20.413Z,6.00
2023-05-13T00:15:22.620Z,6.40
2023-05-13T00:18:25.011Z,7.15
2023-05-13T00:21:27.575Z,7.07
2023-05-13T00:24:29.829Z,6.40
2023-05-13T00:27:32.958Z,6.90
2023-05-13T00:30:35.177Z,7.13
2023-05-13T00:33:37.692Z,7.07
2023-05-13T00:36:40.008Z,6.85
2023-05-13T00:39:42.261Z,6.32
2023-05-13T00:42:44.569Z,6.70
2023-05-13T00:45:46.823Z,6.55
2023-05-13T00:48:49.546Z,6.20
2023-05-13T00:51:55.193Z,6.95
2023-05-13T00:54:58.151Z,7.13
2023-05-13T00:58:00.458Z,6.47
2023-05-13T01:01:17.916Z,6.65
2023-05-13T01:04:39.215Z,6.40
2023-05-13T01:08:00.380Z,6.63
2023-05-13T01:11:11.866Z,6.70
2023-05-13T01:14:22.161Z,7.13
2023-05-13T01:17:32.017Z,7.75
2023-05-13T01:20:34.625Z,7.25
2023-05-13T01:23:36.943Z,7.35
2023-05-13T01:26:40.582Z,7.68
2023-05-13T01:29:44.231Z,6.80
2023-05-13T01:32:48.552Z,7.82
2023-05-13T01:35:52.217Z,7.57
2023-05-13T01:38:56.248Z,7.97
2023-05-13T01:41:58.694Z,8.10
2023-05-13T01:45:01.049Z,5.97
2023-05-13T01:48:03.553Z,6.65
2023-05-13T01:51:15.872Z,7.18
2023-05-13T01:54:18.174Z,6.53
2023-05-13T01:57:26.317Z,7.50
2023-05-13T02:00:28.476Z,7.20
2023-05-13T02:03:31.876Z,7.28
2023-05-13T02:06:34.073Z,5.88
2023-05-13T02:09:36.544Z,7.35
2023-05-13T02:12:40.931Z,7.25
2023-05-13T02:15:44.091Z,7.00
2023-05-13T02:18:46.382Z,6.60
2023-05-13T02:21:48.833Z,6.63
2023-05-13T02:24:51.074Z,7.15
2023-05-13T02:27:53.310Z,7.07
2023-05-13T02:30:55.558Z,6.93
2023-05-13T02:33:57.855Z,6.78
2023-05-13T02:37:00.330Z,7.03
2023-05-13T02:40:03.753Z,6.68
2023-05-13T02:43:06.346Z,6.65
2023-05-13T02:46:21.421Z,6.33
2023-05-13T02:49:23.707Z,7.00
2023-05-13T02:52:25.920Z,7.22
2023-05-13T02:55:28.192Z,6.75
2023-05-13T02:58:30.465Z,6.30
2023-05-13T03:01:34.025Z,6.53
2023-05-13T03:04:36.293Z,6.03
2023-05-13T03:07:38.531Z,6.50
2023-05-13T03:10:40.718Z,6.00
2023-05-13T03:13:43.005Z,6.22
2023-05-13T03:16:45.304Z,6.70
2023-05-13T03:19:50.046Z,6.05
2023-05-13T03:22:52.349Z,5.53
2023-05-13T03:25:55.497Z,6.15
2023-05-13T03:28:57.997Z,6.03
2023-05-13T03:32:00.440Z,5.43
2023-05-13T03:35:03.771Z,6.55
2023-05-13T03:38:07.111Z,6.35
2023-05-13T03:41:13.052Z,6.50
2023-05-13T03:44:15.354Z,5.78
2023-05-13T03:47:17.635Z,6.30
2023-05-13T03:50:20.801Z,5.82
2023-05-13T03:53:23.290Z,7.10
2023-05-13T03:56:25.940Z,5.78
2023-05-13T03:59:28.225Z,6.10
2023-05-13T04:02:30.679Z,6.43
2023-05-13T04:05:33.008Z,7.20
2023-05-13T04:08:35.378Z,7.38
2023-05-13T04:11:37.650Z,6.68
2023-05-13T04:14:40.216Z,6.85
2023-05-13T04:17:42.433Z,6.93
2023-05-13T04:20:44.646Z,6.97
2023-05-13T04:23:46.935Z,7.35
2023-05-13T04:26:49.085Z,6.45
2023-05-13T04:29:51.572Z,5.95
2023-05-13T04:32:54.219Z,6.40
2023-05-13T04:35:56.554Z,7.28
2023-05-13T04:38:58.787Z,6.63
2023-05-13T04:42:01.236Z,6.03
2023-05-13T04:45:03.698Z,6.43
2023-05-13T04:48:06.891Z,5.50
2023-05-13T04:51:09.240Z,6.43
2023-05-13T04:54:12.088Z,6.63
2023-05-13T04:57:14.350Z,6.63
2023-05-13T05:00:16.936Z,6.22
2023-05-13T05:03:21.935Z,6.90
2023-05-13T05:06:24.323Z,6.80
2023-05-13T05:09:26.829Z,5.88
2023-05-13T05:12:32.391Z,6.45
2023-05-13T05:15:34.797Z,6.45
2023-05-13T05:18:41.338Z,6.63
2023-05-13T05:21:44.003Z,7.10
2023-05-13T05:24:48.328Z,5.57
2023-05-13T05:27:50.696Z,5.63
2023-05-13T05:30:53.298Z,6.57
2023-05-13T05:34:01.281Z,6.37
2023-05-13T05:37:03.702Z,6.25
2023-05-13T05:40:08.562Z,6.00
2023-05-13T05:43:14.637Z,6.05
2023-05-13T05:46:17.023Z,6.20
2023-05-13T05:49:19.289Z,5.73
2023-05-13T05:52:22.758Z,5.93
2023-05-13T05:55:25.702Z,6.45
2023-05-13T05:58:28.271Z,6.20
2023-05-13T06:01:36.711Z,5.25
2023-05-13T06:04:39.561Z,6.93
2023-05-13T06:07:43.117Z,7.35
2023-05-13T06:10:45.573Z,6.10
2023-05-13T06:13:48.701Z,6.22
2023-05-13T06:16:51.712Z,7.13
2023-05-13T06:19:54.706Z,6.47
2023-05-13T06:22:57.024Z,6.80
2023-05-13T06:26:00.615Z,6.50
2023-05-13T06:29:03.155Z,6.82
2023-05-13T06:32:09.306Z,5.85
2023-05-13T06:35:11.516Z,5.53
2023-05-13T06:38:14.579Z,5.75
2023-05-13T06:41:16.950Z,5.20
2023-05-13T06:44:19.673Z,5.18
2023-05-13T06:47:23.921Z,5.32
2023-05-13T06:50:26.531Z,5.40
2023-05-13T06:53:28.741Z,5.28
2023-05-13T06:56:31.739Z,5.03
2023-05-13T06:59:34.002Z,5.40
2023-05-13T07:02:36.485Z,5.05
2023-05-13T07:05:38.793Z,4.93
2023-05-13T07:08:40.982Z,4.82
2023-05-13T07:11:44.093Z,5.40
2023-05-13T07:14:46.281Z,5.40
2023-05-13T07:17:48.841Z,4.97
2023-05-13T07:20:51.282Z,5.00
2023-05-13T07:23:53.510Z,6.15
2023-05-13T07:26:55.751Z,6.03
2023-05-13T07:29:57.925Z,6.65
2023-05-13T07:33:00.277Z,6.82
2023-05-13T07:36:02.674Z,6.87
2023-05-13T07:39:05.021Z,6.57
2023-05-13T07:42:07.354Z,6.28
2023-05-13T07:45:10.089Z,6.72
2023-05-13T07:48:12.873Z,7.45
2023-05-13T07:51:16.344Z,6.23
2023-05-13T07:54:18.870Z,7.57
2023-05-13T07:57:21.150Z,7.30
2023-05-13T08:00:23.529Z,6.72
2023-05-13T08:03:25.991Z,6.47
2023-05-13T08:06:28.326Z,6.10
2023-05-13T08:09:30.715Z,5.90
2023-05-13T08:12:35.583Z,6.13
2023-05-13T08:15:38.003Z,5.85
2023-05-13T08:18:40.322Z,5.80
2023-05-13T08:21:47.755Z,6.30
2023-05-13T08:24:50.055Z,5.65
2023-05-13T08:27:52.225Z,5.88
2023-05-13T08:30:54.433Z,5.80
2023-05-13T08:33:56.720Z,5.43
2023-05-13T08:36:59.187Z,5.67
2023-05-13T08:40:04.889Z,6.25
2023-05-13T08:43:07.397Z,6.53
2023-05-13T08:46:11.487Z,5.78
2023-05-13T08:49:13.812Z,5.70
2023-05-13T08:52:17.103Z,5.47
2023-05-13T08:55:19.887Z,5.38
2023-05-13T08:58:22.468Z,5.88
2023-05-13T09:01:25.213Z,5.53
2023-05-13T09:04:30.713Z,5.57
2023-05-13T09:07:34.107Z,5.00
2023-05-13T09:10:36.829Z,5.10
2023-05-13T09:13:39.158Z,4.82
2023-05-13T09:16:44.024Z,5.05
2023-05-13T09:19:46.293Z,4.10
2023-05-13T09:22:49.745Z,4.00
2023-05-13T09:25:51.985Z,3.67
2023-05-13T09:29:17.848Z,4.13
2023-05-13T09:32:20.056Z,5.20
2023-05-13T09:35:22.488Z,5.00
2023-05-13T09:38:25.943Z,5.23
2023-05-13T09:41:28.253Z,4.60
2023-05-13T09:44:30.614Z,4.95
2023-05-13T09:47:32.930Z,5.30
2023-05-13T09:50:35.348Z,5.07
2023-05-13T09:53:37.610Z,4.77
2023-05-13T09:56:39.922Z,4.72
2023-05-13T09:59:42.107Z,4.50
2023-05-13T10:02:45.103Z,4.60
2023-05-13T10:05:51.327Z,4.32
2023-05-13T10:08:54.282Z,4.20
2023-05-13T10:11:57.588Z,4.13
2023-05-13T10:15:01.688Z,3.92
2023-05-13T10:18:07.235Z,4.30
2023-05-13T10:21:09.765Z,4.50
2023-05-13T10:24:12.382Z,4.30
2023-05-13T10:27:14.854Z,4.20
2023-05-13T10:30:17.880Z,4.53
2023-05-13T10:33:21.761Z,4.45
2023-05-13T10:36:42.872Z,4.40
2023-05-13T10:39:51.118Z,4.23
2023-05-13T10:43:09.404Z,4.63
2023-05-13T10:46:12.754Z,4.95
2023-05-13T10:49:18.030Z,4.47
2023-05-13T10:52:20.547Z,4.35
2023-05-13T10:55:22.818Z,4.40
2023-05-13T10:58:28.678Z,4.90
2023-05-13T11:01:47.373Z,4.68
2023-05-13T11:05:00.261Z,4.60
2023-05-13T11:08:02.769Z,4.40
2023-05-13T11:11:26.483Z,4.40
2023-05-13T11:14:30.972Z,4.65
2023-05-13T11:17:34.766Z,4.43
2023-05-13T11:20:51.482Z,4.57
2023-05-13T11:23:59.165Z,4.63
2023-05-13T11:27:12.933Z,4.93
2023-05-13T11:30:26.198Z,5.15
2023-05-13T11:33:48.368Z,4.68
2023-05-13T11:36:51.708Z,5.10
2023-05-13T11:39:53.910Z,4.70
2023-05-13T11:42:56.732Z,5.10
2023-05-13T11:46:07.943Z,5.25
2023-05-13T11:49:10.288Z,5.32
2023-05-13T11:52:19.416Z,5.63
2023-05-13T11:55:26.092Z,5.10
2023-05-13T11:58:28.359Z,5.00
2023-05-13T12:01:30.563Z,5.28
2023-05-13T12:04:32.906Z,4.93
2023-05-13T12:07:35.837Z,4.78
2023-05-13T12:10:45.028Z,4.18
2023-05-13T12:13:47.857Z,4.70
2023-05-13T12:16:53.404Z,5.03
2023-05-13T12:20:17.268Z,4.57
2023-05-13T12:23:19.512Z,4.40
2023-05-13T12:26:21.713Z,4.25
2023-05-13T12:29:23.946Z,4.43
2023-05-13T12:32:26.194Z,5.00
2023-05-13T12:35:28.439Z,4.57
2023-05-13T12:38:30.681Z,4.80
2023-05-13T12:41:34.871Z,5.07
2023-05-13T12:44:37.092Z,4.50
2023-05-13T12:47:52.512Z,4.97
2023-05-13T12:50:57.800Z,4.85
2023-05-13T12:54:01.071Z,4.25
2023-05-13T12:57:08.314Z,4.50
2023-05-13T13:00:11.432Z,4.67
2023-05-13T13:03:13.972Z,4.80
2023-05-13T13:06:16.510Z,4.60
2023-05-13T13:09:18.917Z,4.45
2023-05-13T13:12:21.248Z,4.35
2023-05-13T13:15:26.186Z,4.10
2023-05-13T13:18:28.459Z,4.43
2023-05-13T13:21:30.794Z,4.53
2023-05-13T13:24:35.888Z,4.28
2023-05-13T13:27:38.184Z,4.50
2023-05-13T13:30:46.306Z,4.30
2023-05-13T13:33:48.686Z,4.40
2023-05-13T13:36:50.983Z,4.35
2023-05-13T13:39:53.280Z,4.25
2023-05-13T13:42:55.523Z,4.50
2023-05-13T13:45:57.885Z,4.33
2023-05-13T13:49:02.141Z,4.40
2023-05-13T13:52:08.753Z,4.45
2023-05-13T13:55:12.293Z,4.55
2023-05-13T13:58:15.773Z,3.53
2023-05-13T14:01:19.698Z,3.77
2023-05-13T14:04:23.775Z,4.25
2023-05-13T14:07:26.369Z,4.80
2023-05-13T14:10:28.580Z,4.30
2023-05-13T14:13:30.829Z,4.15
2023-05-13T14:16:33.176Z,4.50
2023-05-13T14:19:35.527Z,4.32
2023-05-13T14:22:40.527Z,4.43
2023-05-13T14:25:42.857Z,4.50
2023-05-13T14:28:45.659Z,3.95
2023-05-13T14:31:48.216Z,4.40
2023-05-13T14:34:50.587Z,3.92
2023-05-13T14:37:52.961Z,4.35
2023-05-13T14:40:56.518Z,4.57
2023-05-13T14:43:59.214Z,4.35
2023-05-13T14:47:01.463Z,5.00
2023-05-13T14:50:09.208Z,4.57
2023-05-13T14:53:11.475Z,4.53
2023-05-13T14:56:13.764Z,5.28
2023-05-13T14:59:18.976Z,5.00
2023-05-13T15:02:21.291Z,4.13
2023-05-13T15:05:23.747Z,4.68
2023-05-13T15:08:26.043Z,4.63
2023-05-13T15:11:28.433Z,4.13
2023-05-13T15:14:30.659Z,4.68
2023-05-13T15:17:33.105Z,4.40
2023-05-13T15:20:35.302Z,4.45
2023-05-13T15:23:37.559Z,4.53
2023-05-13T15:26:39.802Z,4.22
2023-05-13T15:29:44.871Z,4.97
2023-05-13T15:32:50.088Z,4.47
2023-05-13T15:35:52.716Z,5.13
2023-05-13T15:38:55.200Z,4.70
2023-05-13T15:41:57.580Z,4.55
2023-05-13T15:44:59.812Z,4.68
2023-05-13T15:48:02.122Z,4.73
2023-05-13T15:51:04.573Z,4.50
2023-05-13T15:54:09.391Z,4.50
2023-05-13T15:57:11.615Z,4.80
2023-05-13T16:00:16.649Z,4.53
2023-05-13T16:03:19.016Z,4.37
2023-05-13T16:06:21.293Z,4.50
2023-05-13T16:09:23.536Z,4.57
2023-05-13T16:12:25.792Z,5.32
2023-05-13T16:15:28.224Z,4.50
2023-05-13T16:18:30.568Z,4.60
2023-05-13T16:21:32.810Z,5.00
2023-05-13T16:24:35.045Z,4.65
2023-05-13T16:27:38.159Z,5.03
2023-05-13T16:30:41.307Z,4.70
2023-05-13T16:33:43.719Z,5.03
2023-05-13T16:36:46.069Z,4.90
2023-05-13T16:39:48.347Z,4.32
2023-05-13T16:42:50.596Z,4.13
2023-05-13T16:45:52.878Z,4.35
2023-05-13T16:48:57.729Z,4.97
2023-05-13T16:52:00.876Z,5.10
2023-05-13T16:55:03.244Z,5.20
2023-05-13T16:58:05.722Z,4.82
2023-05-13T17:01:10.790Z,5.00
2023-05-13T17:04:13.125Z,4.53
2023-05-13T17:07:15.459Z,4.90
2023-05-13T17:10:17.814Z,4.68
2023-05-13T17:13:20.045Z,4.93
2023-05-13T17:16:22.370Z,4.63
2023-05-13T17:19:24.629Z,5.03
2023-05-13T17:22:26.874Z,5.20
2023-05-13T17:25:29.129Z,4.70
2023-05-13T17:28:33.654Z,5.28
2023-05-13T17:31:35.919Z,4.38
2023-05-13T17:34:38.306Z,4.93
2023-05-13T17:37:40.634Z,5.45
2023-05-13T17:40:45.696Z,4.68
2023-05-13T17:43:50.787Z,4.97
2023-05-13T17:46:53.067Z,4.70
2023-05-13T17:49:55.425Z,4.83
2023-05-13T17:52:57.650Z,5.20
2023-05-13T17:56:00.010Z,4.47
2023-05-13T17:59:02.219Z,5.20
2023-05-13T18:02:04.655Z,4.75
2023-05-13T18:05:07.501Z,4.80
2023-05-13T18:08:09.765Z,5.47
2023-05-13T18:11:12.082Z,5.10
2023-05-13T18:14:14.397Z,5.43
2023-05-13T18:17:16.647Z,5.40
2023-05-13T18:20:19.533Z,5.60
2023-05-13T18:23:21.848Z,5.60
2023-05-13T18:26:24.211Z,5.78
2023-05-13T18:29:26.508Z,6.20
2023-05-13T18:32:28.830Z,6.28
2023-05-13T18:35:33.706Z,6.63
2023-05-13T18:38:35.942Z,6.07
2023-05-13T18:41:40.814Z,6.00
2023-05-13T18:44:45.909Z,5.53
2023-05-13T18:47:48.146Z,6.53
2023-05-13T18:50:51.444Z,5.77
2023-05-13T18:53:53.747Z,5.90
2023-05-13T18:56:56.396Z,6.25
2023-05-13T18:59:58.690Z,6.00
2023-05-13T19:03:01.076Z,6.07
2023-05-13T19:06:03.870Z,6.40
2023-05-13T19:09:06.202Z,6.18
2023-05-13T19:12:08.571Z,5.90
2023-05-13T19:15:11.453Z,6.47
2023-05-13T19:18:16.374Z,6.10
2023-05-13T19:21:18.704Z,6.90
2023-05-13T19:24:20.978Z,6.05
2023-05-13T19:27:23.229Z,6.22
2023-05-13T19:30:25.598Z,6.20
2023-05-13T19:33:27.914Z,6.28
2023-05-13T19:36:30.091Z,6.10
2023-05-13T19:39:32.397Z,6.30
2023-05-13T19:42:37.449Z,6.80
2023-05-13T19:45:39.811Z,6.80
2023-05-13T19:48:42.161Z,6.68
2023-05-13T19:51:44.459Z,6.23
2023-05-13T19:54:46.748Z,6.90
2023-05-13T19:57:51.915Z,6.15
2023-05-13T20:00:54.456Z,6.15
2023-05-13T20:03:59.772Z,6.18
2023-05-13T20:07:02.128Z,5.50
2023-05-13T20:10:04.790Z,6.05
2023-05-13T20:13:07.142Z,6.30
2023-05-13T20:16:09.418Z,5.70
2023-05-13T20:19:11.715Z,6.18
2023-05-13T20:22:14.612Z,5.30
2023-05-13T20:25:17.009Z,5.88
2023-05-13T20:28:19.311Z,5.88
2023-05-13T20:31:21.512Z,6.32
2023-05-13T20:34:23.729Z,6.25
2023-05-13T20:37:25.933Z,6.83
2023-05-13T20:40:28.154Z,6.85
2023-05-13T20:43:30.687Z,7.10
2023-05-13T20:46:33.062Z,5.82
2023-05-13T20:49:35.581Z,6.40
2023-05-13T20:52:37.861Z,6.63
2023-05-13T20:55:40.139Z,7.38
2023-05-13T20:58:42.287Z,7.07
2023-05-13T21:01:47.667Z,6.80
2023-05-13T21:04:50.083Z,6.97
2023-05-13T21:07:52.536Z,7.50
2023-05-13T21:10:56.351Z,7.00
2023-05-13T21:13:58.631Z,6.50
2023-05-13T21:17:03.516Z,6.63
2023-05-13T21:20:06.112Z,7.57
2023-05-13T21:23:08.324Z,6.43
2023-05-13T21:26:10.694Z,7.55
2023-05-13T21:29:12.930Z,7.32
2023-05-13T21:32:16.617Z,7.28
2023-05-13T21:35:19.417Z,7.88
2023-05-13T21:38:21.776Z,6.80
2023-05-13T21:41:24.025Z,6.82
2023-05-13T21:44:26.866Z,6.65
2023-05-13T21:47:29.671Z,7.00
2023-05-13T21:50:31.982Z,7.20
2023-05-13T21:53:34.236Z,7.00
2023-05-13T21:56:36.408Z,6.78
2023-05-13T21:59:38.741Z,6.93
2023-05-13T22:02:42.150Z,6.88
2023-05-13T22:05:44.459Z,6.90
2023-05-13T22:08:46.862Z,6.97
2023-05-13T22:11:49.020Z,6.82
2023-05-13T22:14:52.100Z,6.88
2023-05-13T22:17:54.786Z,6.90
2023-05-13T22:20:58.803Z,6.70
2023-05-13T22:24:01.078Z,7.50
2023-05-13T22:27:03.322Z,7.05
2023-05-13T22:30:05.863Z,6.45
2023-05-13T22:33:08.166Z,6.50
2023-05-13T22:36:11.854Z,6.18
2023-05-13T22:39:15.908Z,6.77
2023-05-13T22:42:18.142Z,6.57
2023-05-13T22:45:20.440Z,6.10
2023-05-13T22:48:22.649Z,6.78
2023-05-13T22:51:24.896Z,6.70
2023-05-13T22:54:27.069Z,6.13
2023-05-13T22:57:29.320Z,6.20
2023-05-13T23:00:31.634Z,5.65
2023-05-13T23:03:34.027Z,6.22
2023-05-13T23:06:36.649Z,6.20
2023-05-13T23:09:38.819Z,5.73
2023-05-13T23:12:41.096Z,5.95
2023-05-13T23:15:43.369Z,6.43
2023-05-13T23:18:45.816Z,6.38
2023-05-13T23:21:48.059Z,5.85
2023-05-13T23:24:50.258Z,5.50
2023-05-13T23:27:52.456Z,6.45
2023-05-13T23:30:54.788Z,6.57
2023-05-13T23:33:57.003Z,5.30
2023-05-13T23:36:59.203Z,5.60
2023-05-13T23:40:02.418Z,6.10
2023-05-13T23:43:04.718Z,5.82
2023-05-13T23:46:06.999Z,6.45
2023-05-13T23:49:09.233Z,6.32
2023-05-13T23:52:11.423Z,5.65
2023-05-13T23:55:13.634Z,6.43
2023-05-13T23:58:15.828Z,5.70
